LNK132D FHSH-FAOR
Flight info
| Callsign | LNK132D |
|---|---|
| Flight time | 4h 11m |
| Altitude | 35000 |
| Route | AVAKA DCT 18S000E 22S010E DCT NIBEK/N0455F370 UN183 XALVI UN181 PEDIL UQ19 AVAGO AVAGO1D |
| Aircraft | E190/M-SDE3GILORVW/S |
Departure
| Time | 2026-05-06 16:33 |
|---|---|
| Airport | Saint Helena International Airport (FHSH) |
Arrival
| Time | 2026-05-06 20:44 |
|---|---|
| Airport | O.R. Tambo International Airport (FAOR) |
| Time | Latitude | Longitude | Altitude | Speed | Heading |
|---|---|---|---|---|---|
| 2026-05-06 16:16 | -15.96190 | -5.64829 | 1005 ft | 0 kts | 176° |
| 2026-05-06 16:27 | -15.96194 | -5.64827 | 996 ft | 0 kts | 158° |
| 2026-05-06 16:27 | -15.96195 | -5.64822 | 995 ft | 1 kts | 126° |
| 2026-05-06 16:27 | -15.96195 | -5.64797 | 994 ft | 5 kts | 92° |
| 2026-05-06 16:27 | -15.96213 | -5.64769 | 995 ft | 6 kts | 111° |
| 2026-05-06 16:28 | -15.96213 | -5.64705 | 995 ft | 11 kts | 88° |
| 2026-05-06 16:28 | -15.96211 | -5.64633 | 998 ft | 0 kts | 90° |
| 2026-05-06 16:28 | -15.96211 | -5.64628 | 1000 ft | 2 kts | 90° |
| 2026-05-06 16:28 | -15.96211 | -5.64615 | 999 ft | 0 kts | 90° |
| 2026-05-06 16:29 | -15.96208 | -5.64604 | 1001 ft | 7 kts | 71° |
| 2026-05-06 16:29 | -15.96118 | -5.64590 | 1001 ft | 18 kts | 0° |
| 2026-05-06 16:29 | -15.95990 | -5.64591 | 996 ft | 19 kts | 358° |
| 2026-05-06 16:29 | -15.95847 | -5.64595 | 998 ft | 21 kts | 359° |
| 2026-05-06 16:30 | -15.95702 | -5.64597 | 999 ft | 22 kts | 360° |
| 2026-05-06 16:30 | -15.95591 | -5.64599 | 997 ft | 25 kts | 355° |
| 2026-05-06 16:30 | -15.95355 | -5.64605 | 997 ft | 25 kts | 359° |
| 2026-05-06 16:30 | -15.95186 | -5.64611 | 996 ft | 25 kts | 358° |
| 2026-05-06 16:31 | -15.95021 | -5.64624 | 995 ft | 21 kts | 335° |
| 2026-05-06 16:31 | -15.94960 | -5.64618 | 998 ft | 6 kts | 150° |
| 2026-05-06 16:31 | -15.94979 | -5.64616 | 997 ft | 0 kts | 179° |
| 2026-05-06 16:32 | -15.95068 | -5.64615 | 995 ft | 41 kts | 179° |
| 2026-05-06 16:32 | -15.95561 | -5.64603 | 998 ft | 100 kts | 178° |
| 2026-05-06 16:32 | -15.96417 | -5.64580 | 991 ft | 147 kts | 178° |
| 2026-05-06 16:32 | -15.97499 | -5.64540 | 1499 ft | 154 kts | 171° |
| 2026-05-06 16:33 | -15.98518 | -5.64517 | 2304 ft | 148 kts | 170° |
| 2026-05-06 16:33 | -15.99614 | -5.64495 | 2771 ft | 164 kts | 171° |
| 2026-05-06 16:33 | -16.00834 | -5.64471 | 2948 ft | 184 kts | 174° |
| 2026-05-06 16:34 | -16.03157 | -5.63044 | 3142 ft | 208 kts | 107° |
| 2026-05-06 16:34 | -16.03256 | -5.61585 | 3910 ft | 204 kts | 91° |
| 2026-05-06 16:34 | -16.03231 | -5.60089 | 4484 ft | 210 kts | 92° |
| 2026-05-06 16:34 | -16.03369 | -5.58537 | 4866 ft | 227 kts | 99° |
| 2026-05-06 16:35 | -16.03621 | -5.56882 | 5284 ft | 241 kts | 99° |
| 2026-05-06 16:35 | -16.03868 | -5.55112 | 5783 ft | 252 kts | 98° |
| 2026-05-06 16:35 | -16.04099 | -5.53283 | 6387 ft | 260 kts | 97° |
| 2026-05-06 16:35 | -16.04335 | -5.51381 | 6933 ft | 267 kts | 97° |
| 2026-05-06 16:36 | -16.04572 | -5.49455 | 7573 ft | 272 kts | 97° |
| 2026-05-06 16:36 | -16.04812 | -5.47509 | 8178 ft | 276 kts | 97° |
| 2026-05-06 16:36 | -16.05053 | -5.45509 | 8826 ft | 280 kts | 97° |
| 2026-05-06 16:36 | -16.05298 | -5.43476 | 9453 ft | 284 kts | 97° |
| 2026-05-06 16:37 | -16.05543 | -5.41438 | 10064 ft | 289 kts | 97° |
| 2026-05-06 16:37 | -16.05801 | -5.39322 | 10399 ft | 302 kts | 97° |
| 2026-05-06 16:37 | -16.06072 | -5.37116 | 10743 ft | 314 kts | 97° |
| 2026-05-06 16:37 | -16.06567 | -5.34879 | 11300 ft | 318 kts | 109° |
| 2026-05-06 16:38 | -16.07380 | -5.32724 | 11892 ft | 321 kts | 112° |
| 2026-05-06 16:38 | -16.08245 | -5.30572 | 12493 ft | 324 kts | 112° |
| 2026-05-06 16:38 | -16.09085 | -5.28415 | 13058 ft | 327 kts | 111° |
| 2026-05-06 16:38 | -16.09933 | -5.26201 | 13648 ft | 330 kts | 111° |
| 2026-05-06 16:39 | -16.10774 | -5.23985 | 14173 ft | 333 kts | 111° |
| 2026-05-06 16:39 | -16.11625 | -5.21730 | 14687 ft | 336 kts | 111° |
| 2026-05-06 16:39 | -16.12481 | -5.19453 | 15225 ft | 339 kts | 112° |
| 2026-05-06 16:39 | -16.13346 | -5.17150 | 15764 ft | 342 kts | 112° |
| 2026-05-06 16:40 | -16.14208 | -5.14854 | 16265 ft | 345 kts | 112° |
| 2026-05-06 16:40 | -16.15088 | -5.12514 | 16769 ft | 348 kts | 112° |
| 2026-05-06 16:40 | -16.15976 | -5.10153 | 17249 ft | 351 kts | 112° |
| 2026-05-06 16:40 | -16.16860 | -5.07799 | 17694 ft | 354 kts | 112° |
| 2026-05-06 16:41 | -16.17759 | -5.05402 | 18130 ft | 357 kts | 112° |
| 2026-05-06 16:41 | -16.18673 | -5.02971 | 18542 ft | 360 kts | 112° |
| 2026-05-06 16:41 | -16.19576 | -5.00564 | 18896 ft | 363 kts | 112° |
| 2026-05-06 16:41 | -16.20497 | -4.98107 | 19261 ft | 365 kts | 112° |
| 2026-05-06 16:42 | -16.21428 | -4.95626 | 19607 ft | 369 kts | 112° |
| 2026-05-06 16:42 | -16.22365 | -4.93126 | 19972 ft | 371 kts | 112° |
| 2026-05-06 16:42 | -16.23298 | -4.90641 | 20306 ft | 374 kts | 112° |
| 2026-05-06 16:42 | -16.24252 | -4.88091 | 20660 ft | 377 kts | 112° |
| 2026-05-06 16:43 | -16.25197 | -4.85571 | 21001 ft | 379 kts | 112° |
| 2026-05-06 16:43 | -16.26165 | -4.82986 | 21330 ft | 383 kts | 112° |
| 2026-05-06 16:43 | -16.27137 | -4.80389 | 21651 ft | 385 kts | 112° |
| 2026-05-06 16:43 | -16.28105 | -4.77802 | 21961 ft | 388 kts | 112° |
| 2026-05-06 16:44 | -16.29092 | -4.75165 | 22278 ft | 390 kts | 112° |
| 2026-05-06 16:44 | -16.30072 | -4.72546 | 22588 ft | 392 kts | 112° |
| 2026-05-06 16:44 | -16.31071 | -4.69873 | 22870 ft | 395 kts | 112° |
| 2026-05-06 16:44 | -16.32073 | -4.67192 | 23148 ft | 398 kts | 112° |
| 2026-05-06 16:45 | -16.33071 | -4.64525 | 23413 ft | 400 kts | 112° |
| 2026-05-06 16:45 | -16.34091 | -4.61799 | 23708 ft | 402 kts | 112° |
| 2026-05-06 16:45 | -16.35111 | -4.59067 | 23935 ft | 404 kts | 112° |
| 2026-05-06 16:45 | -16.36117 | -4.56368 | 24173 ft | 406 kts | 112° |
| 2026-05-06 16:46 | -16.36798 | -4.54539 | 24325 ft | 407 kts | 112° |
| 2026-05-06 16:46 | -16.37827 | -4.51777 | 24546 ft | 408 kts | 112° |
| 2026-05-06 16:46 | -16.39195 | -4.48103 | 24831 ft | 411 kts | 112° |
| 2026-05-06 16:46 | -16.39895 | -4.46227 | 24982 ft | 412 kts | 112° |
| 2026-05-06 16:47 | -16.40921 | -4.43474 | 25198 ft | 413 kts | 112° |
| 2026-05-06 16:47 | -16.41964 | -4.40673 | 25393 ft | 415 kts | 111° |
| 2026-05-06 16:47 | -16.43012 | -4.37859 | 25600 ft | 416 kts | 112° |
| 2026-05-06 16:47 | -16.44065 | -4.35032 | 25811 ft | 418 kts | 111° |
| 2026-05-06 16:48 | -16.45106 | -4.32230 | 26012 ft | 419 kts | 111° |
| 2026-05-06 16:48 | -16.46167 | -4.29372 | 26220 ft | 421 kts | 111° |
| 2026-05-06 16:48 | -16.47230 | -4.26511 | 26405 ft | 422 kts | 111° |
| 2026-05-06 16:48 | -16.48283 | -4.23677 | 26612 ft | 424 kts | 111° |
| 2026-05-06 16:49 | -16.49354 | -4.20796 | 26825 ft | 425 kts | 111° |
| 2026-05-06 16:49 | -16.50414 | -4.17946 | 27003 ft | 426 kts | 111° |
| 2026-05-06 16:49 | -16.51489 | -4.15042 | 27197 ft | 428 kts | 111° |
| 2026-05-06 16:49 | -16.52552 | -4.12171 | 27374 ft | 429 kts | 111° |
| 2026-05-06 16:50 | -16.53631 | -4.09260 | 27552 ft | 431 kts | 111° |
| 2026-05-06 16:50 | -16.54716 | -4.06329 | 27751 ft | 432 kts | 111° |
| 2026-05-06 16:50 | -16.55792 | -4.03424 | 27923 ft | 433 kts | 111° |
| 2026-05-06 16:50 | -16.56879 | -4.00487 | 28117 ft | 434 kts | 111° |
| 2026-05-06 16:51 | -16.57975 | -3.97522 | 28264 ft | 436 kts | 111° |
| 2026-05-06 16:51 | -16.59057 | -3.94597 | 28445 ft | 437 kts | 111° |
| 2026-05-06 16:51 | -16.60155 | -3.91628 | 28602 ft | 439 kts | 110° |
| 2026-05-06 16:51 | -16.61264 | -3.88628 | 28774 ft | 440 kts | 110° |
| 2026-05-06 16:52 | -16.62360 | -3.85658 | 28943 ft | 442 kts | 110° |
| 2026-05-06 16:52 | -16.63454 | -3.82689 | 29082 ft | 443 kts | 110° |
| 2026-05-06 16:52 | -16.64565 | -3.79679 | 29257 ft | 444 kts | 110° |
| 2026-05-06 16:52 | -16.65678 | -3.76660 | 29396 ft | 446 kts | 110° |
| 2026-05-06 16:53 | -16.66783 | -3.73660 | 29550 ft | 447 kts | 110° |
| 2026-05-06 16:53 | -16.67909 | -3.70607 | 29724 ft | 448 kts | 110° |
| 2026-05-06 16:53 | -16.69028 | -3.67565 | 29855 ft | 449 kts | 110° |
| 2026-05-06 16:53 | -16.70137 | -3.64551 | 30013 ft | 450 kts | 110° |
| 2026-05-06 16:54 | -16.71263 | -3.61489 | 30126 ft | 452 kts | 110° |
| 2026-05-06 16:54 | -16.72393 | -3.58415 | 30238 ft | 453 kts | 110° |
| 2026-05-06 16:54 | -16.73528 | -3.55326 | 30343 ft | 455 kts | 110° |
| 2026-05-06 16:55 | -16.75793 | -3.49158 | 30538 ft | 458 kts | 110° |
| 2026-05-06 16:55 | -16.78069 | -3.42954 | 30731 ft | 460 kts | 110° |
| 2026-05-06 16:55 | -16.79221 | -3.39813 | 30843 ft | 462 kts | 110° |
| 2026-05-06 16:56 | -16.80370 | -3.36677 | 30971 ft | 462 kts | 110° |
| 2026-05-06 16:56 | -16.82668 | -3.30397 | 31170 ft | 464 kts | 110° |
| 2026-05-06 16:56 | -16.83822 | -3.27245 | 31272 ft | 465 kts | 110° |
| 2026-05-06 16:57 | -16.84967 | -3.24112 | 31355 ft | 467 kts | 110° |
| 2026-05-06 16:57 | -16.86133 | -3.20915 | 31462 ft | 467 kts | 110° |
| 2026-05-06 16:57 | -16.87279 | -3.17777 | 31534 ft | 469 kts | 110° |
| 2026-05-06 16:57 | -16.88446 | -3.14580 | 31643 ft | 469 kts | 110° |
| 2026-05-06 16:58 | -16.89599 | -3.11418 | 31742 ft | 470 kts | 110° |
| 2026-05-06 16:58 | -16.91936 | -3.05005 | 31930 ft | 472 kts | 110° |
| 2026-05-06 16:59 | -16.94271 | -2.98591 | 32115 ft | 474 kts | 110° |
| 2026-05-06 16:59 | -16.96615 | -2.92148 | 32294 ft | 475 kts | 110° |
| 2026-05-06 16:59 | -16.97789 | -2.88918 | 32404 ft | 475 kts | 110° |
| 2026-05-06 17:00 | -16.98966 | -2.85680 | 32522 ft | 475 kts | 110° |
| 2026-05-06 17:00 | -17.00124 | -2.82489 | 32641 ft | 475 kts | 110° |
| 2026-05-06 17:00 | -17.01301 | -2.79243 | 32752 ft | 475 kts | 110° |
| 2026-05-06 17:01 | -17.03637 | -2.72795 | 32935 ft | 476 kts | 110° |
| 2026-05-06 17:01 | -17.04814 | -2.69548 | 33045 ft | 476 kts | 110° |
| 2026-05-06 17:01 | -17.05992 | -2.66294 | 33157 ft | 476 kts | 110° |
| 2026-05-06 17:01 | -17.07150 | -2.63094 | 33263 ft | 476 kts | 110° |
| 2026-05-06 17:02 | -17.08328 | -2.59837 | 33352 ft | 476 kts | 110° |
| 2026-05-06 17:02 | -17.10666 | -2.53365 | 33529 ft | 477 kts | 110° |
| 2026-05-06 17:03 | -17.13003 | -2.46890 | 33724 ft | 477 kts | 110° |
| 2026-05-06 17:03 | -17.15348 | -2.40384 | 33894 ft | 478 kts | 110° |
| 2026-05-06 17:04 | -17.17695 | -2.33865 | 34065 ft | 478 kts | 110° |
| 2026-05-06 17:04 | -17.20026 | -2.27386 | 34221 ft | 478 kts | 110° |
| 2026-05-06 17:05 | -17.22359 | -2.20892 | 34358 ft | 478 kts | 110° |
| 2026-05-06 17:05 | -17.24701 | -2.14364 | 34500 ft | 478 kts | 110° |
| 2026-05-06 17:06 | -17.27030 | -2.07867 | 34619 ft | 479 kts | 110° |
| 2026-05-06 17:06 | -17.29370 | -2.01334 | 34752 ft | 479 kts | 110° |
| 2026-05-06 17:07 | -17.31711 | -1.94788 | 34877 ft | 479 kts | 110° |
| 2026-05-06 17:07 | -17.34037 | -1.88276 | 35149 ft | 472 kts | 110° |
| 2026-05-06 17:07 | -17.35174 | -1.85091 | 35266 ft | 472 kts | 110° |
| 2026-05-06 17:08 | -17.36333 | -1.81843 | 35240 ft | 475 kts | 110° |
| 2026-05-06 17:08 | -17.37482 | -1.78618 | 35100 ft | 480 kts | 110° |
| 2026-05-06 17:08 | -17.38656 | -1.75326 | 35109 ft | 481 kts | 110° |
| 2026-05-06 17:09 | -17.40992 | -1.68763 | 35103 ft | 484 kts | 110° |
| 2026-05-06 17:09 | -17.43361 | -1.62102 | 35105 ft | 487 kts | 110° |
| 2026-05-06 17:10 | -17.45726 | -1.55443 | 35100 ft | 490 kts | 110° |
| 2026-05-06 17:10 | -17.48104 | -1.48741 | 35107 ft | 493 kts | 110° |
| 2026-05-06 17:11 | -17.50492 | -1.42001 | 35104 ft | 495 kts | 110° |
| 2026-05-06 17:11 | -17.52887 | -1.35235 | 35103 ft | 498 kts | 110° |
| 2026-05-06 17:12 | -17.55294 | -1.28425 | 35107 ft | 500 kts | 110° |
| 2026-05-06 17:12 | -17.57709 | -1.21583 | 35102 ft | 502 kts | 110° |
| 2026-05-06 17:13 | -17.60130 | -1.14716 | 35105 ft | 502 kts | 110° |
| 2026-05-06 17:13 | -17.62541 | -1.07870 | 35106 ft | 502 kts | 111° |
| 2026-05-06 17:14 | -17.64953 | -1.01013 | 35112 ft | 502 kts | 111° |
| 2026-05-06 17:14 | -17.67377 | -0.94112 | 35108 ft | 502 kts | 110° |
| 2026-05-06 17:15 | -17.69784 | -0.87251 | 35108 ft | 502 kts | 111° |
| 2026-05-06 17:15 | -17.72187 | -0.80391 | 35107 ft | 502 kts | 111° |
| 2026-05-06 17:16 | -17.74586 | -0.73538 | 35109 ft | 502 kts | 111° |
| 2026-05-06 17:16 | -17.76994 | -0.66651 | 35109 ft | 502 kts | 111° |
| 2026-05-06 17:17 | -17.79389 | -0.59786 | 35107 ft | 502 kts | 111° |
| 2026-05-06 17:17 | -17.81783 | -0.52921 | 35114 ft | 502 kts | 111° |
| 2026-05-06 17:18 | -17.84187 | -0.46024 | 35114 ft | 502 kts | 111° |
| 2026-05-06 17:18 | -17.86572 | -0.39168 | 35110 ft | 502 kts | 111° |
| 2026-05-06 17:19 | -17.88960 | -0.32294 | 35116 ft | 502 kts | 111° |
| 2026-05-06 17:19 | -17.91360 | -0.25376 | 35111 ft | 502 kts | 111° |
| 2026-05-06 17:20 | -17.93736 | -0.18530 | 35108 ft | 501 kts | 111° |
| 2026-05-06 17:20 | -17.96117 | -0.11645 | 35112 ft | 501 kts | 111° |
| 2026-05-06 17:21 | -17.98510 | -0.04749 | 35120 ft | 501 kts | 111° |
| 2026-05-06 17:21 | -18.01013 | 0.02058 | 35131 ft | 502 kts | 115° |
| 2026-05-06 17:22 | -18.03924 | 0.08737 | 35104 ft | 502 kts | 116° |
| 2026-05-06 17:22 | -18.06844 | 0.15395 | 35102 ft | 502 kts | 116° |
| 2026-05-06 17:23 | -18.09756 | 0.22059 | 35105 ft | 502 kts | 116° |
| 2026-05-06 17:23 | -18.12672 | 0.28743 | 35109 ft | 502 kts | 116° |
| 2026-05-06 17:24 | -18.15573 | 0.35402 | 35110 ft | 502 kts | 116° |
| 2026-05-06 17:24 | -18.18493 | 0.42112 | 35108 ft | 502 kts | 116° |
| 2026-05-06 17:25 | -18.21394 | 0.48785 | 35114 ft | 502 kts | 116° |
| 2026-05-06 17:25 | -18.24283 | 0.55439 | 35108 ft | 502 kts | 116° |
| 2026-05-06 17:26 | -18.27191 | 0.62143 | 35110 ft | 502 kts | 116° |
| 2026-05-06 17:26 | -18.30066 | 0.68780 | 35113 ft | 502 kts | 116° |
| 2026-05-06 17:27 | -18.32968 | 0.75487 | 35112 ft | 501 kts | 116° |
| 2026-05-06 17:27 | -18.35853 | 0.82160 | 35115 ft | 501 kts | 116° |
| 2026-05-06 17:28 | -18.38729 | 0.88823 | 35115 ft | 501 kts | 116° |
| 2026-05-06 17:28 | -18.41605 | 0.95492 | 35111 ft | 501 kts | 116° |
| 2026-05-06 17:29 | -18.44493 | 1.02196 | 35112 ft | 501 kts | 116° |
| 2026-05-06 17:29 | -18.47356 | 1.08850 | 35114 ft | 501 kts | 116° |
| 2026-05-06 17:30 | -18.50242 | 1.15566 | 35116 ft | 500 kts | 116° |
| 2026-05-06 17:30 | -18.53101 | 1.22225 | 35115 ft | 500 kts | 116° |
| 2026-05-06 17:31 | -18.55960 | 1.28893 | 35113 ft | 500 kts | 116° |
| 2026-05-06 17:31 | -18.58819 | 1.35568 | 35115 ft | 500 kts | 116° |
| 2026-05-06 17:32 | -18.61684 | 1.42267 | 35116 ft | 500 kts | 116° |
| 2026-05-06 17:32 | -18.64529 | 1.48925 | 35114 ft | 500 kts | 116° |
| 2026-05-06 17:33 | -18.67395 | 1.55638 | 35115 ft | 500 kts | 116° |
| 2026-05-06 17:33 | -18.70234 | 1.62299 | 35111 ft | 500 kts | 116° |
| 2026-05-06 17:34 | -18.73092 | 1.69012 | 35112 ft | 500 kts | 115° |
| 2026-05-06 17:34 | -18.75936 | 1.75698 | 35115 ft | 500 kts | 115° |
| 2026-05-06 17:35 | -18.78773 | 1.82377 | 35114 ft | 500 kts | 115° |
| 2026-05-06 17:35 | -18.81608 | 1.89059 | 35117 ft | 500 kts | 115° |
| 2026-05-06 17:36 | -18.85861 | 1.99096 | 35117 ft | 500 kts | 115° |
| 2026-05-06 17:36 | -18.88685 | 2.05771 | 35115 ft | 499 kts | 115° |
| 2026-05-06 17:37 | -18.91044 | 2.11354 | 35119 ft | 499 kts | 115° |
| 2026-05-06 17:37 | -18.93876 | 2.18063 | 35114 ft | 499 kts | 115° |
| 2026-05-06 17:38 | -18.96691 | 2.24741 | 35114 ft | 499 kts | 115° |
| 2026-05-06 17:38 | -18.99527 | 2.31474 | 35117 ft | 499 kts | 115° |
| 2026-05-06 17:39 | -19.02324 | 2.38124 | 35116 ft | 499 kts | 115° |
| 2026-05-06 17:39 | -19.05155 | 2.44861 | 35118 ft | 499 kts | 115° |
| 2026-05-06 17:40 | -19.07963 | 2.51553 | 35117 ft | 498 kts | 115° |
| 2026-05-06 17:40 | -19.10760 | 2.58229 | 35119 ft | 498 kts | 115° |
| 2026-05-06 17:41 | -19.13558 | 2.64911 | 35120 ft | 498 kts | 115° |
| 2026-05-06 17:41 | -19.16369 | 2.71634 | 35121 ft | 498 kts | 115° |
| 2026-05-06 17:42 | -19.19163 | 2.78325 | 35120 ft | 498 kts | 115° |
| 2026-05-06 17:42 | -19.21958 | 2.85027 | 35124 ft | 498 kts | 115° |
| 2026-05-06 17:43 | -19.24742 | 2.91710 | 35122 ft | 498 kts | 115° |
| 2026-05-06 17:43 | -19.27532 | 2.98414 | 35121 ft | 498 kts | 115° |
| 2026-05-06 17:44 | -19.30316 | 3.05113 | 35122 ft | 497 kts | 115° |
| 2026-05-06 17:44 | -19.33100 | 3.11821 | 35122 ft | 497 kts | 115° |
| 2026-05-06 17:45 | -19.35887 | 3.18544 | 35120 ft | 497 kts | 115° |
| 2026-05-06 17:45 | -19.38664 | 3.25251 | 35121 ft | 497 kts | 115° |
| 2026-05-06 17:46 | -19.41435 | 3.31952 | 35119 ft | 497 kts | 115° |
| 2026-05-06 17:46 | -19.44202 | 3.38648 | 35124 ft | 498 kts | 115° |
| 2026-05-06 17:47 | -19.46987 | 3.45400 | 35122 ft | 497 kts | 115° |
| 2026-05-06 17:47 | -19.49752 | 3.52112 | 35123 ft | 497 kts | 115° |
| 2026-05-06 17:48 | -19.52508 | 3.58809 | 35122 ft | 497 kts | 115° |
| 2026-05-06 17:48 | -19.55265 | 3.65515 | 35126 ft | 497 kts | 115° |
| 2026-05-06 17:49 | -19.58032 | 3.72254 | 35127 ft | 497 kts | 115° |
| 2026-05-06 17:49 | -19.60797 | 3.78994 | 35125 ft | 497 kts | 115° |
| 2026-05-06 17:50 | -19.63538 | 3.85685 | 35125 ft | 497 kts | 115° |
| 2026-05-06 17:50 | -19.66295 | 3.92426 | 35127 ft | 497 kts | 115° |
| 2026-05-06 17:51 | -19.69037 | 3.99130 | 35128 ft | 496 kts | 115° |
| 2026-05-06 17:51 | -19.71774 | 4.05840 | 35128 ft | 496 kts | 115° |
| 2026-05-06 17:52 | -19.74523 | 4.12588 | 35125 ft | 496 kts | 115° |
| 2026-05-06 17:52 | -19.77251 | 4.19293 | 35130 ft | 496 kts | 115° |
| 2026-05-06 17:53 | -19.79999 | 4.26042 | 35127 ft | 496 kts | 115° |
| 2026-05-06 17:53 | -19.82719 | 4.32731 | 35129 ft | 496 kts | 115° |
| 2026-05-06 17:54 | -19.85446 | 4.39461 | 35130 ft | 496 kts | 115° |
| 2026-05-06 17:54 | -19.88169 | 4.46183 | 35133 ft | 496 kts | 115° |
| 2026-05-06 17:55 | -19.90904 | 4.52944 | 35130 ft | 496 kts | 115° |
| 2026-05-06 17:55 | -19.93622 | 4.59654 | 35134 ft | 496 kts | 115° |
| 2026-05-06 17:56 | -19.96336 | 4.66378 | 35133 ft | 496 kts | 115° |
| 2026-05-06 17:56 | -19.99069 | 4.73144 | 35132 ft | 496 kts | 115° |
| 2026-05-06 17:57 | -20.01770 | 4.79859 | 35136 ft | 495 kts | 115° |
| 2026-05-06 17:57 | -20.04463 | 4.86569 | 35134 ft | 495 kts | 114° |
| 2026-05-06 17:58 | -20.07167 | 4.93338 | 35134 ft | 495 kts | 114° |
| 2026-05-06 17:58 | -20.09868 | 5.00061 | 35136 ft | 495 kts | 115° |
| 2026-05-06 17:59 | -20.12573 | 5.06774 | 35140 ft | 495 kts | 114° |
| 2026-05-06 17:59 | -20.15277 | 5.13545 | 35134 ft | 495 kts | 115° |
| 2026-05-06 18:00 | -20.17967 | 5.20260 | 35136 ft | 495 kts | 115° |
| 2026-05-06 18:00 | -20.20666 | 5.27025 | 35139 ft | 495 kts | 114° |
| 2026-05-06 18:01 | -20.23342 | 5.33751 | 35136 ft | 495 kts | 114° |
| 2026-05-06 18:01 | -20.26026 | 5.40480 | 35134 ft | 494 kts | 114° |
| 2026-05-06 18:02 | -20.28716 | 5.47246 | 35133 ft | 494 kts | 114° |
| 2026-05-06 18:02 | -20.31384 | 5.53967 | 35140 ft | 494 kts | 114° |
| 2026-05-06 18:03 | -20.34065 | 5.60742 | 35134 ft | 494 kts | 114° |
| 2026-05-06 18:03 | -20.36729 | 5.67464 | 35137 ft | 494 kts | 114° |
| 2026-05-06 18:04 | -20.39394 | 5.74200 | 35141 ft | 494 kts | 114° |
| 2026-05-06 18:04 | -20.42067 | 5.80959 | 35136 ft | 494 kts | 114° |
| 2026-05-06 18:05 | -20.44713 | 5.87679 | 35138 ft | 494 kts | 114° |
| 2026-05-06 18:05 | -20.47385 | 5.94469 | 35145 ft | 494 kts | 114° |
| 2026-05-06 18:06 | -20.50035 | 6.01196 | 35140 ft | 494 kts | 114° |
| 2026-05-06 18:06 | -20.52701 | 6.07975 | 35139 ft | 493 kts | 114° |
| 2026-05-06 18:07 | -20.55338 | 6.14714 | 35141 ft | 493 kts | 114° |
| 2026-05-06 18:07 | -20.57975 | 6.21452 | 35141 ft | 494 kts | 114° |
| 2026-05-06 18:08 | -20.60624 | 6.28209 | 35142 ft | 494 kts | 114° |
| 2026-05-06 18:08 | -20.63262 | 6.34983 | 35142 ft | 494 kts | 114° |
| 2026-05-06 18:09 | -20.65896 | 6.41725 | 35141 ft | 494 kts | 114° |
| 2026-05-06 18:09 | -20.68551 | 6.48516 | 35140 ft | 493 kts | 114° |
| 2026-05-06 18:10 | -20.71178 | 6.55261 | 35142 ft | 494 kts | 114° |
| 2026-05-06 18:10 | -20.73804 | 6.62022 | 35144 ft | 494 kts | 114° |
| 2026-05-06 18:11 | -20.76441 | 6.68821 | 35140 ft | 493 kts | 114° |
| 2026-05-06 18:11 | -20.79060 | 6.75580 | 35142 ft | 493 kts | 114° |
| 2026-05-06 18:12 | -20.81669 | 6.82339 | 35140 ft | 493 kts | 114° |
| 2026-05-06 18:12 | -20.84282 | 6.89096 | 35140 ft | 493 kts | 114° |
| 2026-05-06 18:13 | -20.86917 | 6.95898 | 35142 ft | 493 kts | 114° |
| 2026-05-06 18:13 | -20.89537 | 7.02703 | 35140 ft | 493 kts | 114° |
| 2026-05-06 18:14 | -20.92142 | 7.09452 | 35139 ft | 494 kts | 114° |
| 2026-05-06 18:14 | -20.94760 | 7.16277 | 35139 ft | 494 kts | 114° |
| 2026-05-06 18:15 | -20.97368 | 7.23053 | 35144 ft | 494 kts | 114° |
| 2026-05-06 18:15 | -20.99964 | 7.29830 | 35144 ft | 494 kts | 114° |
| 2026-05-06 18:16 | -21.02580 | 7.36646 | 35142 ft | 494 kts | 114° |
| 2026-05-06 18:16 | -21.05176 | 7.43472 | 35144 ft | 494 kts | 114° |
| 2026-05-06 18:17 | -21.07767 | 7.50251 | 35141 ft | 494 kts | 114° |
| 2026-05-06 18:17 | -21.10362 | 7.57077 | 35141 ft | 494 kts | 114° |
| 2026-05-06 18:18 | -21.12951 | 7.63867 | 35138 ft | 494 kts | 114° |
| 2026-05-06 18:18 | -21.15537 | 7.70663 | 35141 ft | 494 kts | 114° |
| 2026-05-06 18:19 | -21.18134 | 7.77516 | 35138 ft | 494 kts | 114° |
| 2026-05-06 18:19 | -21.20706 | 7.84303 | 35140 ft | 494 kts | 114° |
| 2026-05-06 18:20 | -21.23288 | 7.91114 | 35137 ft | 494 kts | 114° |
| 2026-05-06 18:20 | -21.25885 | 7.97976 | 35142 ft | 495 kts | 114° |
| 2026-05-06 18:21 | -21.28468 | 8.04799 | 35143 ft | 495 kts | 114° |
| 2026-05-06 18:21 | -21.31040 | 8.11652 | 35140 ft | 495 kts | 114° |
| 2026-05-06 18:22 | -21.33620 | 8.18495 | 35141 ft | 495 kts | 113° |
| 2026-05-06 18:22 | -21.36174 | 8.25305 | 35138 ft | 494 kts | 114° |
| 2026-05-06 18:23 | -21.38746 | 8.32131 | 35137 ft | 495 kts | 114° |
| 2026-05-06 18:23 | -21.41311 | 8.38992 | 35143 ft | 494 kts | 114° |
| 2026-05-06 18:24 | -21.43463 | 8.44704 | 35140 ft | 494 kts | 114° |
| 2026-05-06 18:24 | -21.46013 | 8.51540 | 35144 ft | 494 kts | 113° |
| 2026-05-06 18:25 | -21.48571 | 8.58408 | 35135 ft | 494 kts | 113° |
| 2026-05-06 18:25 | -21.51121 | 8.65252 | 35133 ft | 494 kts | 113° |
| 2026-05-06 18:26 | -21.53670 | 8.72094 | 35149 ft | 494 kts | 113° |
| 2026-05-06 18:26 | -21.56223 | 8.78969 | 35145 ft | 494 kts | 113° |
| 2026-05-06 18:27 | -21.58763 | 8.85814 | 35146 ft | 494 kts | 113° |
| 2026-05-06 18:27 | -21.61310 | 8.92678 | 35141 ft | 494 kts | 114° |
| 2026-05-06 18:28 | -21.63872 | 8.99569 | 35147 ft | 495 kts | 113° |
| 2026-05-06 18:28 | -21.66403 | 9.06425 | 35137 ft | 495 kts | 113° |
| 2026-05-06 18:29 | -21.68928 | 9.13272 | 35141 ft | 495 kts | 113° |
| 2026-05-06 18:29 | -21.71473 | 9.20194 | 35141 ft | 495 kts | 113° |
| 2026-05-06 18:30 | -21.74006 | 9.27058 | 35141 ft | 495 kts | 113° |
| 2026-05-06 18:30 | -21.76545 | 9.33964 | 35143 ft | 496 kts | 113° |
| 2026-05-06 18:31 | -21.79068 | 9.40858 | 35143 ft | 496 kts | 113° |
| 2026-05-06 18:31 | -21.81596 | 9.47780 | 35142 ft | 496 kts | 113° |
| 2026-05-06 18:32 | -21.84114 | 9.54673 | 35138 ft | 496 kts | 113° |
| 2026-05-06 18:32 | -21.86643 | 9.61567 | 35139 ft | 496 kts | 113° |
| 2026-05-06 18:33 | -21.89170 | 9.68506 | 35147 ft | 497 kts | 113° |
| 2026-05-06 18:33 | -21.91680 | 9.75412 | 35141 ft | 496 kts | 113° |
| 2026-05-06 18:34 | -21.94210 | 9.82358 | 35141 ft | 496 kts | 113° |
| 2026-05-06 18:34 | -21.96713 | 9.89259 | 35141 ft | 496 kts | 113° |
| 2026-05-06 18:35 | -21.99218 | 9.96162 | 35140 ft | 496 kts | 113° |
| 2026-05-06 18:35 | -22.01601 | 10.03174 | 35146 ft | 498 kts | 108° |
| 2026-05-06 18:36 | -22.03630 | 10.10307 | 35141 ft | 498 kts | 109° |
| 2026-05-06 18:36 | -22.05780 | 10.17377 | 35138 ft | 497 kts | 110° |
| 2026-05-06 18:37 | -22.07973 | 10.24440 | 35142 ft | 497 kts | 110° |
| 2026-05-06 18:37 | -22.10170 | 10.31489 | 35136 ft | 497 kts | 110° |
| 2026-05-06 18:38 | -22.12376 | 10.38575 | 35136 ft | 497 kts | 110° |
| 2026-05-06 18:38 | -22.14570 | 10.45628 | 35137 ft | 497 kts | 110° |
| 2026-05-06 18:39 | -22.16773 | 10.52725 | 35136 ft | 497 kts | 110° |
| 2026-05-06 18:40 | -22.20062 | 10.63340 | 35136 ft | 497 kts | 110° |
| 2026-05-06 18:40 | -22.22242 | 10.70390 | 35138 ft | 497 kts | 110° |
| 2026-05-06 18:41 | -22.24433 | 10.77490 | 35139 ft | 497 kts | 110° |
| 2026-05-06 18:41 | -22.26608 | 10.84549 | 35136 ft | 498 kts | 110° |
| 2026-05-06 18:42 | -22.28795 | 10.91660 | 35135 ft | 498 kts | 110° |
| 2026-05-06 18:42 | -22.30968 | 10.98737 | 35137 ft | 498 kts | 110° |
| 2026-05-06 18:43 | -22.33139 | 11.05819 | 35139 ft | 498 kts | 110° |
| 2026-05-06 18:43 | -22.35320 | 11.12948 | 35132 ft | 498 kts | 110° |
| 2026-05-06 18:44 | -22.37487 | 11.20041 | 35135 ft | 498 kts | 110° |
| 2026-05-06 18:44 | -22.39651 | 11.27137 | 35139 ft | 498 kts | 110° |
| 2026-05-06 18:45 | -22.41812 | 11.34239 | 35137 ft | 498 kts | 110° |
| 2026-05-06 18:45 | -22.43976 | 11.41358 | 35135 ft | 499 kts | 110° |
| 2026-05-06 18:46 | -22.46138 | 11.48487 | 35133 ft | 499 kts | 110° |
| 2026-05-06 18:46 | -22.48299 | 11.55623 | 35136 ft | 499 kts | 110° |
| 2026-05-06 18:47 | -22.50449 | 11.62736 | 35135 ft | 499 kts | 110° |
| 2026-05-06 18:47 | -22.52611 | 11.69904 | 35133 ft | 499 kts | 110° |
| 2026-05-06 18:48 | -22.54753 | 11.77016 | 35131 ft | 499 kts | 110° |
| 2026-05-06 18:48 | -22.56897 | 11.84145 | 35134 ft | 499 kts | 110° |
| 2026-05-06 18:49 | -22.59047 | 11.91310 | 35137 ft | 500 kts | 110° |
| 2026-05-06 18:49 | -22.61182 | 11.98437 | 35128 ft | 500 kts | 110° |
| 2026-05-06 18:50 | -22.63332 | 12.05627 | 35130 ft | 500 kts | 110° |
| 2026-05-06 18:50 | -22.65462 | 12.12760 | 35126 ft | 500 kts | 110° |
| 2026-05-06 18:51 | -22.67596 | 12.19926 | 35129 ft | 500 kts | 110° |
| 2026-05-06 18:51 | -22.69727 | 12.27087 | 35124 ft | 501 kts | 110° |
| 2026-05-06 18:52 | -22.71867 | 12.34298 | 35129 ft | 501 kts | 110° |
| 2026-05-06 18:52 | -22.73988 | 12.41454 | 35122 ft | 501 kts | 110° |
| 2026-05-06 18:53 | -22.76120 | 12.48662 | 35128 ft | 501 kts | 110° |
| 2026-05-06 18:53 | -22.78241 | 12.55844 | 35129 ft | 501 kts | 110° |
| 2026-05-06 18:54 | -22.80355 | 12.63018 | 35127 ft | 502 kts | 110° |
| 2026-05-06 18:54 | -22.82486 | 12.70260 | 35123 ft | 502 kts | 110° |
| 2026-05-06 18:55 | -22.84595 | 12.77445 | 35121 ft | 502 kts | 110° |
| 2026-05-06 18:55 | -22.86708 | 12.84653 | 35125 ft | 502 kts | 110° |
| 2026-05-06 18:56 | -22.88829 | 12.91901 | 35117 ft | 503 kts | 110° |
| 2026-05-06 18:56 | -22.90940 | 12.99130 | 35131 ft | 503 kts | 110° |
| 2026-05-06 18:57 | -22.93039 | 13.06331 | 35132 ft | 503 kts | 110° |
| 2026-05-06 18:57 | -22.95143 | 13.13562 | 35119 ft | 503 kts | 110° |
| 2026-05-06 18:58 | -22.97184 | 13.20860 | 35132 ft | 505 kts | 103° |
| 2026-05-06 18:58 | -22.97579 | 13.28472 | 35156 ft | 510 kts | 91° |
| 2026-05-06 18:59 | -22.97581 | 13.36192 | 35105 ft | 509 kts | 91° |
| 2026-05-06 18:59 | -22.97629 | 13.43864 | 35113 ft | 509 kts | 92° |
| 2026-05-06 19:00 | -22.97690 | 13.51528 | 35113 ft | 510 kts | 92° |
| 2026-05-06 19:00 | -22.97750 | 13.59229 | 35107 ft | 510 kts | 92° |
| 2026-05-06 19:01 | -22.97807 | 13.66963 | 35110 ft | 511 kts | 92° |
| 2026-05-06 19:01 | -22.97861 | 13.74652 | 35113 ft | 511 kts | 92° |
| 2026-05-06 19:02 | -22.97910 | 13.82358 | 35108 ft | 511 kts | 91° |
| 2026-05-06 19:02 | -22.97956 | 13.90053 | 35109 ft | 511 kts | 91° |
| 2026-05-06 19:03 | -22.97999 | 13.97788 | 35107 ft | 512 kts | 91° |
| 2026-05-06 19:03 | -22.98038 | 14.05519 | 35100 ft | 512 kts | 91° |
| 2026-05-06 19:04 | -22.98073 | 14.13261 | 35101 ft | 512 kts | 91° |
| 2026-05-06 19:04 | -22.98104 | 14.20975 | 35100 ft | 512 kts | 91° |
| 2026-05-06 19:05 | -22.98132 | 14.28701 | 35097 ft | 513 kts | 91° |
| 2026-05-06 19:05 | -22.98156 | 14.36462 | 35096 ft | 513 kts | 91° |
| 2026-05-06 19:06 | -22.98176 | 14.44185 | 35094 ft | 513 kts | 91° |
| 2026-05-06 19:06 | -22.98191 | 14.51918 | 35110 ft | 514 kts | 91° |
| 2026-05-06 19:06 | -22.98197 | 14.55809 | 35266 ft | 509 kts | 91° |
| 2026-05-06 19:07 | -22.98202 | 14.59558 | 35839 ft | 498 kts | 91° |
| 2026-05-06 19:07 | -22.98206 | 14.62063 | 36008 ft | 496 kts | 91° |
| 2026-05-06 19:07 | -22.98782 | 14.67006 | 36112 ft | 492 kts | 107° |
| 2026-05-06 19:08 | -23.00741 | 14.74112 | 36158 ft | 495 kts | 110° |
| 2026-05-06 19:08 | -23.02753 | 14.81322 | 36195 ft | 500 kts | 109° |
| 2026-05-06 19:09 | -23.04717 | 14.88594 | 36233 ft | 505 kts | 109° |
| 2026-05-06 19:09 | -23.06687 | 14.95922 | 36260 ft | 509 kts | 109° |
| 2026-05-06 19:10 | -23.08347 | 15.02105 | 36289 ft | 513 kts | 109° |
| 2026-05-06 19:10 | -23.10318 | 15.09461 | 36474 ft | 504 kts | 109° |
| 2026-05-06 19:10 | -23.11298 | 15.13120 | 36747 ft | 500 kts | 109° |
| 2026-05-06 19:11 | -23.12258 | 15.16702 | 36994 ft | 496 kts | 109° |
| 2026-05-06 19:11 | -23.13223 | 15.20307 | 37124 ft | 496 kts | 109° |
| 2026-05-06 19:11 | -23.14193 | 15.23935 | 37109 ft | 499 kts | 109° |
| 2026-05-06 19:12 | -23.16127 | 15.31196 | 37127 ft | 503 kts | 109° |
| 2026-05-06 19:12 | -23.18076 | 15.38526 | 37169 ft | 507 kts | 109° |
| 2026-05-06 19:13 | -23.20032 | 15.45897 | 37068 ft | 510 kts | 109° |
| 2026-05-06 19:13 | -23.21997 | 15.53332 | 37090 ft | 510 kts | 109° |
| 2026-05-06 19:14 | -23.23958 | 15.60746 | 37091 ft | 511 kts | 109° |
| 2026-05-06 19:14 | -23.25907 | 15.68137 | 37094 ft | 512 kts | 109° |
| 2026-05-06 19:15 | -23.27871 | 15.75602 | 37092 ft | 512 kts | 109° |
| 2026-05-06 19:15 | -23.29823 | 15.83038 | 37087 ft | 513 kts | 109° |
| 2026-05-06 19:16 | -23.31776 | 15.90488 | 37097 ft | 513 kts | 109° |
| 2026-05-06 19:16 | -23.33724 | 15.97937 | 37103 ft | 513 kts | 109° |
| 2026-05-06 19:17 | -23.35683 | 16.05445 | 37111 ft | 514 kts | 108° |
| 2026-05-06 19:17 | -23.37626 | 16.12911 | 37103 ft | 514 kts | 109° |
| 2026-05-06 19:18 | -23.39579 | 16.20424 | 37119 ft | 515 kts | 108° |
| 2026-05-06 19:18 | -23.41521 | 16.27913 | 37132 ft | 515 kts | 109° |
| 2026-05-06 19:19 | -23.43463 | 16.35419 | 37134 ft | 515 kts | 108° |
| 2026-05-06 19:19 | -23.45412 | 16.42970 | 37138 ft | 517 kts | 108° |
| 2026-05-06 19:20 | -23.47348 | 16.50490 | 37135 ft | 517 kts | 108° |
| 2026-05-06 19:20 | -23.49280 | 16.58002 | 37147 ft | 517 kts | 108° |
| 2026-05-06 19:21 | -23.51216 | 16.65552 | 37144 ft | 518 kts | 108° |
| 2026-05-06 19:21 | -23.53152 | 16.73117 | 37165 ft | 518 kts | 108° |
| 2026-05-06 19:22 | -23.55090 | 16.80705 | 37171 ft | 519 kts | 108° |
| 2026-05-06 19:22 | -23.57026 | 16.88299 | 37160 ft | 519 kts | 108° |
| 2026-05-06 19:23 | -23.58949 | 16.95863 | 37157 ft | 520 kts | 108° |
| 2026-05-06 19:23 | -23.60872 | 17.03445 | 37172 ft | 520 kts | 108° |
| 2026-05-06 19:24 | -23.62792 | 17.11030 | 37162 ft | 521 kts | 108° |
| 2026-05-06 19:24 | -23.64725 | 17.18681 | 37168 ft | 521 kts | 108° |
| 2026-05-06 19:25 | -23.66635 | 17.26283 | 37168 ft | 521 kts | 108° |
| 2026-05-06 19:25 | -23.68542 | 17.33898 | 37174 ft | 522 kts | 108° |
| 2026-05-06 19:26 | -23.70460 | 17.41570 | 37171 ft | 522 kts | 108° |
| 2026-05-06 19:26 | -23.72362 | 17.49194 | 37175 ft | 523 kts | 108° |
| 2026-05-06 19:27 | -23.74270 | 17.56856 | 37174 ft | 523 kts | 108° |
| 2026-05-06 19:27 | -23.76170 | 17.64503 | 37172 ft | 524 kts | 108° |
| 2026-05-06 19:28 | -23.78081 | 17.72208 | 37179 ft | 524 kts | 108° |
| 2026-05-06 19:28 | -23.79988 | 17.79867 | 37176 ft | 525 kts | 108° |
| 2026-05-06 19:29 | -23.81894 | 17.87546 | 37177 ft | 525 kts | 108° |
| 2026-05-06 19:29 | -23.83799 | 17.95241 | 37177 ft | 526 kts | 108° |
| 2026-05-06 19:30 | -23.85716 | 18.03001 | 37179 ft | 526 kts | 108° |
| 2026-05-06 19:30 | -23.87616 | 18.10711 | 37176 ft | 527 kts | 108° |
| 2026-05-06 19:31 | -23.89512 | 18.18424 | 37178 ft | 527 kts | 108° |
| 2026-05-06 19:31 | -23.92360 | 18.30039 | 37180 ft | 528 kts | 108° |
| 2026-05-06 19:32 | -23.94250 | 18.37774 | 37183 ft | 528 kts | 108° |
| 2026-05-06 19:32 | -23.96141 | 18.45528 | 37185 ft | 529 kts | 108° |
| 2026-05-06 19:33 | -23.98046 | 18.53340 | 37181 ft | 529 kts | 108° |
| 2026-05-06 19:33 | -23.99931 | 18.61095 | 37182 ft | 530 kts | 108° |
| 2026-05-06 19:34 | -24.01828 | 18.68921 | 37187 ft | 530 kts | 108° |
| 2026-05-06 19:34 | -24.03710 | 18.76700 | 37189 ft | 531 kts | 108° |
| 2026-05-06 19:35 | -24.05594 | 18.84510 | 37181 ft | 531 kts | 108° |
| 2026-05-06 19:35 | -24.07472 | 18.92308 | 37185 ft | 532 kts | 108° |
| 2026-05-06 19:36 | -24.09350 | 19.00125 | 37183 ft | 532 kts | 108° |
| 2026-05-06 19:36 | -24.11235 | 19.07994 | 37183 ft | 533 kts | 108° |
| 2026-05-06 19:37 | -24.13111 | 19.15844 | 37178 ft | 533 kts | 108° |
| 2026-05-06 19:37 | -24.14673 | 19.22390 | 37183 ft | 534 kts | 108° |
| 2026-05-06 19:38 | -24.16847 | 19.31525 | 37186 ft | 534 kts | 108° |
| 2026-05-06 19:38 | -24.18722 | 19.39431 | 37186 ft | 535 kts | 108° |
| 2026-05-06 19:39 | -24.20583 | 19.47294 | 37182 ft | 535 kts | 108° |
| 2026-05-06 19:39 | -24.22453 | 19.55214 | 37181 ft | 535 kts | 108° |
| 2026-05-06 19:40 | -24.24307 | 19.63086 | 37177 ft | 536 kts | 108° |
| 2026-05-06 19:40 | -24.26172 | 19.71020 | 37181 ft | 536 kts | 108° |
| 2026-05-06 19:41 | -24.28023 | 19.78919 | 37180 ft | 537 kts | 108° |
| 2026-05-06 19:41 | -24.29874 | 19.86837 | 37182 ft | 537 kts | 108° |
| 2026-05-06 19:42 | -24.31722 | 19.94766 | 37178 ft | 538 kts | 108° |
| 2026-05-06 19:42 | -24.33574 | 20.02730 | 37180 ft | 538 kts | 108° |
| 2026-05-06 19:43 | -24.35420 | 20.10667 | 37181 ft | 538 kts | 108° |
| 2026-05-06 19:43 | -24.37261 | 20.18604 | 37183 ft | 539 kts | 108° |
| 2026-05-06 19:44 | -24.39111 | 20.26602 | 37181 ft | 539 kts | 108° |
| 2026-05-06 19:44 | -24.40944 | 20.34542 | 37187 ft | 539 kts | 108° |
| 2026-05-06 19:45 | -24.42787 | 20.42544 | 37184 ft | 540 kts | 108° |
| 2026-05-06 19:45 | -24.44616 | 20.50508 | 37184 ft | 540 kts | 108° |
| 2026-05-06 19:46 | -24.46454 | 20.58537 | 37184 ft | 540 kts | 108° |
| 2026-05-06 19:46 | -24.48279 | 20.66526 | 37190 ft | 541 kts | 108° |
| 2026-05-06 19:47 | -24.50100 | 20.74518 | 37186 ft | 541 kts | 108° |
| 2026-05-06 19:47 | -24.51919 | 20.82524 | 37188 ft | 541 kts | 108° |
| 2026-05-06 19:48 | -24.53736 | 20.90539 | 37192 ft | 542 kts | 108° |
| 2026-05-06 19:48 | -24.55562 | 20.98614 | 37188 ft | 542 kts | 107° |
| 2026-05-06 19:49 | -24.57370 | 21.06635 | 37189 ft | 542 kts | 107° |
| 2026-05-06 19:49 | -24.59174 | 21.14655 | 37193 ft | 543 kts | 107° |
| 2026-05-06 19:50 | -24.60980 | 21.22709 | 37194 ft | 543 kts | 107° |
| 2026-05-06 19:50 | -24.62792 | 21.30810 | 37197 ft | 543 kts | 107° |
| 2026-05-06 19:51 | -24.64585 | 21.38849 | 37193 ft | 544 kts | 107° |
| 2026-05-06 19:51 | -24.66380 | 21.46918 | 37194 ft | 544 kts | 107° |
| 2026-05-06 19:52 | -24.68179 | 21.55027 | 37193 ft | 545 kts | 107° |
| 2026-05-06 19:52 | -24.69968 | 21.63108 | 37197 ft | 545 kts | 107° |
| 2026-05-06 19:53 | -24.71748 | 21.71172 | 37194 ft | 545 kts | 107° |
| 2026-05-06 19:53 | -24.73538 | 21.79309 | 37197 ft | 546 kts | 107° |
| 2026-05-06 19:54 | -24.75311 | 21.87385 | 37196 ft | 546 kts | 107° |
| 2026-05-06 19:54 | -24.77088 | 21.95506 | 37194 ft | 546 kts | 107° |
| 2026-05-06 19:55 | -24.78870 | 22.03667 | 37195 ft | 546 kts | 107° |
| 2026-05-06 19:55 | -24.80634 | 22.11775 | 37193 ft | 547 kts | 107° |
| 2026-05-06 19:56 | -24.82398 | 22.19899 | 37196 ft | 547 kts | 107° |
| 2026-05-06 19:56 | -24.84169 | 22.28079 | 37194 ft | 547 kts | 107° |
| 2026-05-06 19:57 | -24.85927 | 22.36222 | 37196 ft | 548 kts | 107° |
| 2026-05-06 19:57 | -24.87392 | 22.43026 | 37193 ft | 548 kts | 107° |
| 2026-05-06 19:58 | -24.89151 | 22.51217 | 37194 ft | 548 kts | 107° |
| 2026-05-06 19:58 | -24.90896 | 22.59366 | 37197 ft | 549 kts | 107° |
| 2026-05-06 19:59 | -24.92633 | 22.67534 | 37198 ft | 549 kts | 107° |
| 2026-05-06 19:59 | -24.94365 | 22.75764 | 37197 ft | 549 kts | 106° |
| 2026-05-06 20:00 | -24.96084 | 22.83942 | 37193 ft | 549 kts | 106° |
| 2026-05-06 20:00 | -24.97799 | 22.92122 | 37201 ft | 550 kts | 106° |
| 2026-05-06 20:01 | -24.99522 | 23.00358 | 37197 ft | 550 kts | 106° |
| 2026-05-06 20:01 | -25.01229 | 23.08542 | 37192 ft | 550 kts | 106° |
| 2026-05-06 20:02 | -25.02942 | 23.16779 | 37191 ft | 550 kts | 106° |
| 2026-05-06 20:02 | -25.04641 | 23.24971 | 37184 ft | 550 kts | 106° |
| 2026-05-06 20:03 | -25.06350 | 23.33238 | 37185 ft | 550 kts | 106° |
| 2026-05-06 20:03 | -25.08043 | 23.41453 | 37184 ft | 551 kts | 106° |
| 2026-05-06 20:04 | -25.09730 | 23.49661 | 37184 ft | 551 kts | 106° |
| 2026-05-06 20:04 | -25.11441 | 23.57942 | 37179 ft | 552 kts | 106° |
| 2026-05-06 20:05 | -25.13140 | 23.66170 | 37176 ft | 552 kts | 106° |
| 2026-05-06 20:05 | -25.14842 | 23.74442 | 37177 ft | 552 kts | 106° |
| 2026-05-06 20:06 | -25.16534 | 23.82692 | 37174 ft | 552 kts | 106° |
| 2026-05-06 20:06 | -25.18220 | 23.90940 | 37176 ft | 552 kts | 106° |
| 2026-05-06 20:07 | -25.19910 | 23.99231 | 37173 ft | 552 kts | 106° |
| 2026-05-06 20:07 | -25.21585 | 24.07473 | 37175 ft | 552 kts | 106° |
| 2026-05-06 20:08 | -25.23268 | 24.15774 | 37172 ft | 552 kts | 106° |
| 2026-05-06 20:08 | -25.24930 | 24.24005 | 37174 ft | 552 kts | 105° |
| 2026-05-06 20:09 | -25.26605 | 24.32321 | 37172 ft | 552 kts | 105° |
| 2026-05-06 20:09 | -25.28268 | 24.40602 | 37170 ft | 552 kts | 105° |
| 2026-05-06 20:10 | -25.29922 | 24.48860 | 37174 ft | 552 kts | 105° |
| 2026-05-06 20:10 | -25.31570 | 24.57121 | 37165 ft | 552 kts | 105° |
| 2026-05-06 20:11 | -25.33213 | 24.65378 | 37168 ft | 552 kts | 105° |
| 2026-05-06 20:11 | -25.34857 | 24.73669 | 37171 ft | 551 kts | 105° |
| 2026-05-06 20:12 | -25.36495 | 24.81953 | 37163 ft | 551 kts | 105° |
| 2026-05-06 20:12 | -25.38126 | 24.90224 | 37167 ft | 551 kts | 105° |
| 2026-05-06 20:13 | -25.39760 | 24.98542 | 37163 ft | 551 kts | 105° |
| 2026-05-06 20:13 | -25.41377 | 25.06798 | 37174 ft | 551 kts | 105° |
| 2026-05-06 20:14 | -25.43010 | 25.15112 | 37166 ft | 551 kts | 105° |
| 2026-05-06 20:14 | -25.44652 | 25.23366 | 37169 ft | 551 kts | 105° |
| 2026-05-06 20:15 | -25.46291 | 25.31643 | 37164 ft | 551 kts | 105° |
| 2026-05-06 20:15 | -25.47924 | 25.39925 | 37172 ft | 551 kts | 104° |
| 2026-05-06 20:16 | -25.49558 | 25.48243 | 37165 ft | 551 kts | 104° |
| 2026-05-06 20:16 | -25.51179 | 25.56519 | 37169 ft | 551 kts | 104° |
| 2026-05-06 20:17 | -25.52739 | 25.64792 | 37167 ft | 552 kts | 101° |
| 2026-05-06 20:17 | -25.53740 | 25.73271 | 37156 ft | 554 kts | 97° |
| 2026-05-06 20:18 | -25.54637 | 25.81719 | 37153 ft | 553 kts | 98° |
| 2026-05-06 20:18 | -25.55571 | 25.90164 | 37151 ft | 553 kts | 98° |
| 2026-05-06 20:19 | -25.56513 | 25.98646 | 37153 ft | 554 kts | 98° |
| 2026-05-06 20:19 | -25.57447 | 26.07096 | 37148 ft | 553 kts | 98° |
| 2026-05-06 20:20 | -25.58376 | 26.15536 | 37134 ft | 553 kts | 97° |
| 2026-05-06 20:20 | -25.59300 | 26.23984 | 37142 ft | 553 kts | 97° |
| 2026-05-06 20:21 | -25.60221 | 26.32450 | 37144 ft | 553 kts | 97° |
| 2026-05-06 20:21 | -25.61134 | 26.40891 | 37137 ft | 552 kts | 97° |
| 2026-05-06 20:22 | -25.62041 | 26.49317 | 37139 ft | 552 kts | 97° |
| 2026-05-06 20:22 | -25.62946 | 26.57754 | 37138 ft | 552 kts | 97° |
| 2026-05-06 20:23 | -25.63848 | 26.66235 | 37139 ft | 552 kts | 97° |
| 2026-05-06 20:23 | -25.64738 | 26.74648 | 37143 ft | 551 kts | 97° |
| 2026-05-06 20:24 | -25.65623 | 26.83063 | 37139 ft | 550 kts | 96° |
| 2026-05-06 20:24 | -25.66061 | 26.87238 | 37107 ft | 533 kts | 96° |
| 2026-05-06 20:24 | -25.66480 | 26.91252 | 37040 ft | 515 kts | 96° |
| 2026-05-06 20:25 | -25.66881 | 26.95100 | 37076 ft | 495 kts | 96° |
| 2026-05-06 20:25 | -25.67272 | 26.98852 | 37155 ft | 484 kts | 96° |
| 2026-05-06 20:25 | -25.67660 | 27.02594 | 36640 ft | 498 kts | 96° |
| 2026-05-06 20:25 | -25.68062 | 27.06482 | 35123 ft | 524 kts | 95° |
| 2026-05-06 20:26 | -25.68487 | 27.10612 | 33565 ft | 545 kts | 95° |
| 2026-05-06 20:26 | -25.68919 | 27.14814 | 31949 ft | 559 kts | 95° |
| 2026-05-06 20:26 | -25.69362 | 27.19119 | 31194 ft | 553 kts | 95° |
| 2026-05-06 20:26 | -25.69794 | 27.23302 | 30385 ft | 548 kts | 95° |
| 2026-05-06 20:27 | -25.70219 | 27.27464 | 29683 ft | 540 kts | 95° |
| 2026-05-06 20:27 | -25.70638 | 27.31581 | 28994 ft | 530 kts | 95° |
| 2026-05-06 20:27 | -25.71050 | 27.35638 | 28301 ft | 522 kts | 95° |
| 2026-05-06 20:27 | -25.71447 | 27.39575 | 27582 ft | 516 kts | 95° |
| 2026-05-06 20:28 | -25.71877 | 27.43542 | 26945 ft | 509 kts | 99° |
| 2026-05-06 20:28 | -25.72950 | 27.47195 | 26277 ft | 500 kts | 120° |
| 2026-05-06 20:28 | -25.74796 | 27.50410 | 25664 ft | 489 kts | 129° |
| 2026-05-06 20:28 | -25.76781 | 27.53465 | 24968 ft | 486 kts | 129° |
| 2026-05-06 20:29 | -25.78658 | 27.56511 | 24349 ft | 481 kts | 127° |
| 2026-05-06 20:29 | -25.80471 | 27.59629 | 23693 ft | 478 kts | 126° |
| 2026-05-06 20:29 | -25.82233 | 27.62749 | 23053 ft | 471 kts | 125° |
| 2026-05-06 20:29 | -25.83951 | 27.65827 | 22429 ft | 464 kts | 124° |
| 2026-05-06 20:30 | -25.85631 | 27.68861 | 21848 ft | 457 kts | 124° |
| 2026-05-06 20:30 | -25.88913 | 27.74772 | 20655 ft | 444 kts | 124° |
| 2026-05-06 20:30 | -25.90534 | 27.77685 | 20037 ft | 435 kts | 124° |
| 2026-05-06 20:31 | -25.92083 | 27.80478 | 19449 ft | 414 kts | 124° |
| 2026-05-06 20:31 | -25.93555 | 27.83126 | 18770 ft | 400 kts | 125° |
| 2026-05-06 20:31 | -25.94912 | 27.85570 | 18303 ft | 382 kts | 125° |
| 2026-05-06 20:31 | -25.96277 | 27.88030 | 17824 ft | 364 kts | 125° |
| 2026-05-06 20:32 | -25.97592 | 27.90398 | 17374 ft | 356 kts | 125° |
| 2026-05-06 20:32 | -25.98897 | 27.92739 | 16952 ft | 363 kts | 125° |
| 2026-05-06 20:32 | -26.00241 | 27.95153 | 16428 ft | 366 kts | 125° |
| 2026-05-06 20:32 | -26.01568 | 27.97545 | 15917 ft | 365 kts | 125° |
| 2026-05-06 20:33 | -26.02898 | 27.99947 | 15441 ft | 362 kts | 125° |
| 2026-05-06 20:33 | -26.04218 | 28.02333 | 14953 ft | 360 kts | 125° |
| 2026-05-06 20:33 | -26.05311 | 28.04844 | 14394 ft | 364 kts | 105° |
| 2026-05-06 20:33 | -26.05414 | 28.07563 | 13941 ft | 348 kts | 76° |
| 2026-05-06 20:34 | -26.04474 | 28.09907 | 13657 ft | 317 kts | 45° |
| 2026-05-06 20:34 | -26.02842 | 28.11307 | 13414 ft | 282 kts | 15° |
| 2026-05-06 20:34 | -26.01061 | 28.12043 | 13175 ft | 274 kts | 12° |
| 2026-05-06 20:34 | -25.99246 | 28.12742 | 12785 ft | 275 kts | 12° |
| 2026-05-06 20:35 | -25.97425 | 28.13438 | 12473 ft | 274 kts | 12° |
| 2026-05-06 20:35 | -25.95636 | 28.14117 | 12092 ft | 274 kts | 12° |
| 2026-05-06 20:35 | -25.93828 | 28.14797 | 11758 ft | 273 kts | 12° |
| 2026-05-06 20:35 | -25.92041 | 28.15462 | 11313 ft | 276 kts | 12° |
| 2026-05-06 20:36 | -25.90149 | 28.16149 | 10666 ft | 288 kts | 12° |
| 2026-05-06 20:36 | -25.88275 | 28.16862 | 10440 ft | 283 kts | 20° |
| 2026-05-06 20:36 | -25.86730 | 28.18188 | 10188 ft | 287 kts | 50° |
| 2026-05-06 20:36 | -25.85907 | 28.20191 | 9935 ft | 284 kts | 81° |
| 2026-05-06 20:37 | -25.85992 | 28.22315 | 9670 ft | 276 kts | 104° |
| 2026-05-06 20:37 | -25.86417 | 28.24383 | 9405 ft | 272 kts | 105° |
| 2026-05-06 20:37 | -25.86832 | 28.26406 | 9189 ft | 263 kts | 105° |
| 2026-05-06 20:37 | -25.87230 | 28.28348 | 8937 ft | 252 kts | 105° |
| 2026-05-06 20:38 | -25.87780 | 28.30089 | 8676 ft | 230 kts | 128° |
| 2026-05-06 20:38 | -25.88913 | 28.31151 | 8395 ft | 201 kts | 167° |
| 2026-05-06 20:38 | -25.90206 | 28.31597 | 8137 ft | 195 kts | 170° |
| 2026-05-06 20:38 | -25.91466 | 28.32054 | 8033 ft | 181 kts | 171° |
| 2026-05-06 20:39 | -25.92671 | 28.32219 | 8000 ft | 170 kts | 199° |
| 2026-05-06 20:39 | -25.93773 | 28.31838 | 8133 ft | 169 kts | 207° |
| 2026-05-06 20:39 | -25.94915 | 28.31497 | 8150 ft | 172 kts | 201° |
| 2026-05-06 20:39 | -25.96070 | 28.31168 | 8145 ft | 170 kts | 205° |
| 2026-05-06 20:40 | -25.97203 | 28.30793 | 7992 ft | 173 kts | 203° |
| 2026-05-06 20:40 | -25.98344 | 28.30449 | 7961 ft | 168 kts | 203° |
| 2026-05-06 20:40 | -25.99470 | 28.30100 | 7993 ft | 167 kts | 204° |
| 2026-05-06 20:40 | -26.00586 | 28.29750 | 7996 ft | 169 kts | 204° |
| 2026-05-06 20:41 | -26.01722 | 28.29400 | 7990 ft | 168 kts | 204° |
| 2026-05-06 20:41 | -26.02871 | 28.29042 | 7739 ft | 173 kts | 204° |
| 2026-05-06 20:41 | -26.04014 | 28.28689 | 7497 ft | 163 kts | 204° |
| 2026-05-06 20:41 | -26.05050 | 28.28367 | 7278 ft | 149 kts | 204° |
| 2026-05-06 20:42 | -26.06010 | 28.28067 | 7076 ft | 138 kts | 205° |
| 2026-05-06 20:42 | -26.06935 | 28.27781 | 6913 ft | 138 kts | 205° |
| 2026-05-06 20:42 | -26.07876 | 28.27487 | 6777 ft | 141 kts | 205° |
| 2026-05-06 20:42 | -26.08821 | 28.27194 | 6580 ft | 142 kts | 204° |
| 2026-05-06 20:43 | -26.09777 | 28.26895 | 6349 ft | 143 kts | 202° |
| 2026-05-06 20:43 | -26.10752 | 28.26593 | 6139 ft | 147 kts | 200° |
| 2026-05-06 20:43 | -26.11740 | 28.26286 | 5912 ft | 149 kts | 198° |
| 2026-05-06 20:43 | -26.12745 | 28.25977 | 5674 ft | 148 kts | 198° |
| 2026-05-06 20:44 | -26.13719 | 28.25672 | 5518 ft | 142 kts | 198° |
| 2026-05-06 20:44 | -26.14569 | 28.25401 | 5505 ft | 112 kts | 195° |
| 2026-05-06 20:44 | -26.15022 | 28.25262 | 5508 ft | 91 kts | 193° |
| 2026-05-06 20:44 | -26.15593 | 28.25078 | 5515 ft | 25 kts | 217° |
| 2026-05-06 20:45 | -26.15591 | 28.24985 | 5514 ft | 19 kts | 291° |
| 2026-05-06 20:45 | -26.15509 | 28.24906 | 5513 ft | 17 kts | 14° |
| 2026-05-06 20:45 | -26.15392 | 28.24942 | 5513 ft | 19 kts | 14° |
| 2026-05-06 20:45 | -26.15258 | 28.24981 | 5513 ft | 22 kts | 18° |
| 2026-05-06 20:46 | -26.15081 | 28.25037 | 5514 ft | 31 kts | 15° |
| 2026-05-06 20:46 | -26.14848 | 28.25106 | 5510 ft | 36 kts | 14° |
| 2026-05-06 20:46 | -26.14610 | 28.25184 | 5509 ft | 35 kts | 15° |
| 2026-05-06 20:46 | -26.14412 | 28.25143 | 5513 ft | 29 kts | 314° |
| 2026-05-06 20:47 | -26.14290 | 28.25012 | 5530 ft | 22 kts | 316° |
| 2026-05-06 20:47 | -26.14176 | 28.24889 | 5530 ft | 24 kts | 317° |
| 2026-05-06 20:47 | -26.14055 | 28.24756 | 5530 ft | 25 kts | 316° |
| 2026-05-06 20:47 | -26.13935 | 28.24616 | 5530 ft | 25 kts | 300° |
| 2026-05-06 20:48 | -26.13956 | 28.24433 | 5528 ft | 25 kts | 255° |
| 2026-05-06 20:48 | -26.13990 | 28.24253 | 5531 ft | 23 kts | 274° |
| 2026-05-06 20:48 | -26.13948 | 28.24081 | 5546 ft | 22 kts | 285° |
| 2026-05-06 20:48 | -26.13908 | 28.23915 | 5556 ft | 24 kts | 287° |
| 2026-05-06 20:49 | -26.13862 | 28.23738 | 5557 ft | 23 kts | 287° |
| 2026-05-06 20:49 | -26.13818 | 28.23572 | 5558 ft | 22 kts | 288° |
| 2026-05-06 20:49 | -26.13775 | 28.23393 | 5547 ft | 24 kts | 290° |
| 2026-05-06 20:49 | -26.13647 | 28.23348 | 5549 ft | 19 kts | 4° |
| 2026-05-06 20:50 | -26.13602 | 28.23380 | 5547 ft | 5 kts | 92° |
| 2026-05-06 20:50 | -26.13604 | 28.23412 | 5545 ft | 3 kts | 95° |
| 2026-05-06 20:50 | -26.13605 | 28.23423 | 5546 ft | 0 kts | 96° |
| 2026-05-06 20:50 | -26.13606 | 28.23426 | 5546 ft | 0 kts | 96° |